createdAt,value
2018-11-06T00:01:48.828Z,4.60
2018-11-06T00:06:52.210Z,4.60
2018-11-06T00:11:55.721Z,4.50
2018-11-06T00:16:59.179Z,4.50
2018-11-06T00:22:02.529Z,4.30
2018-11-06T00:27:06.093Z,4.20
2018-11-06T00:32:09.469Z,4.20
2018-11-06T00:37:12.800Z,4.30
2018-11-06T00:42:16.132Z,4.10
2018-11-06T00:47:19.684Z,4.00
2018-11-06T00:52:22.998Z,4.00
2018-11-06T00:57:26.343Z,3.80
2018-11-06T01:02:29.711Z,3.90
2018-11-06T01:07:33.095Z,3.80
2018-11-06T01:12:36.455Z,3.90
2018-11-06T01:17:40.001Z,3.90
2018-11-06T01:22:43.334Z,3.80
2018-11-06T01:27:46.636Z,3.80
2018-11-06T01:32:49.965Z,3.80
2018-11-06T01:37:53.452Z,3.70
2018-11-06T01:42:56.804Z,3.60
2018-11-06T01:48:00.169Z,3.60
2018-11-06T01:53:03.499Z,3.60
2018-11-06T01:58:06.960Z,3.60
2018-11-06T02:03:10.473Z,3.60
2018-11-06T02:08:13.767Z,3.50
2018-11-06T02:13:17.247Z,3.50
2018-11-06T02:18:20.582Z,3.50
2018-11-06T02:23:23.903Z,3.50
2018-11-06T02:28:27.317Z,3.40
2018-11-06T02:33:30.760Z,3.30
2018-11-06T02:38:34.116Z,3.40
2018-11-06T02:43:37.576Z,3.30
2018-11-06T02:48:40.933Z,3.40
2018-11-06T02:53:44.314Z,3.30
2018-11-06T02:58:47.621Z,3.20
2018-11-06T03:03:51.144Z,3.30
2018-11-06T03:08:54.483Z,3.30
2018-11-06T03:13:57.814Z,3.30
2018-11-06T03:19:01.128Z,3.30
2018-11-06T03:24:04.934Z,3.20
2018-11-06T03:29:08.314Z,3.30
2018-11-06T03:34:11.682Z,3.30
2018-11-06T03:39:15.090Z,3.20
2018-11-06T03:44:18.407Z,3.10
2018-11-06T03:49:21.733Z,3.10
2018-11-06T03:54:25.165Z,3.00
2018-11-06T03:59:28.489Z,3.10
2018-11-06T04:04:31.819Z,3.10
2018-11-06T04:09:35.159Z,3.10
2018-11-06T04:14:38.537Z,2.90
2018-11-06T04:19:41.884Z,2.90
2018-11-06T04:24:45.274Z,2.70
2018-11-06T04:29:48.726Z,2.70
2018-11-06T04:34:52.048Z,2.80
2018-11-06T04:39:55.449Z,2.70
2018-11-06T04:44:58.801Z,2.80
2018-11-06T04:50:02.222Z,2.80
2018-11-06T04:55:06.952Z,2.80
2018-11-06T05:00:12.208Z,2.80
2018-11-06T05:05:15.578Z,2.70
2018-11-06T05:10:18.892Z,2.60
2018-11-06T05:15:22.222Z,2.70
2018-11-06T05:20:25.558Z,2.60
2018-11-06T05:25:28.995Z,2.50
2018-11-06T05:30:32.252Z,2.50
2018-11-06T05:35:35.561Z,2.50
2018-11-06T05:45:47.557Z,2.50
2018-11-06T05:50:51.009Z,2.60
2018-11-06T05:55:54.480Z,2.60
2018-11-06T06:00:58.225Z,2.60
2018-11-06T06:11:06.786Z,2.60
2018-11-06T06:16:10.238Z,2.50
2018-11-06T06:21:13.714Z,2.40
2018-11-06T06:26:17.422Z,2.50
2018-11-06T06:31:20.796Z,2.50
2018-11-06T06:36:24.143Z,2.50
2018-11-06T06:41:27.590Z,2.60
2018-11-06T06:46:31.028Z,2.60
2018-11-06T06:51:34.302Z,2.60
2018-11-06T06:56:37.628Z,2.80
2018-11-06T07:01:41.014Z,2.80
2018-11-06T07:06:44.350Z,2.80
2018-11-06T07:11:47.673Z,2.90
2018-11-06T07:16:50.968Z,3.00
2018-11-06T07:21:54.344Z,3.10
2018-11-06T07:26:57.669Z,3.20
2018-11-06T07:32:01.013Z,3.30
2018-11-06T07:37:04.595Z,3.30
2018-11-06T07:42:09.003Z,3.50
2018-11-06T07:47:12.399Z,3.50
2018-11-06T07:52:15.781Z,3.80
2018-11-06T07:57:19.126Z,4.00
2018-11-06T08:02:22.508Z,4.10
2018-11-06T08:07:25.849Z,4.20
2018-11-06T08:12:29.297Z,4.20
2018-11-06T08:17:32.629Z,4.50
2018-11-06T08:22:36.225Z,4.80
2018-11-06T08:27:40.334Z,4.90
2018-11-06T08:32:44.008Z,5.20
2018-11-06T08:37:47.125Z,5.50
2018-11-06T08:42:50.505Z,5.70
2018-11-06T08:47:53.968Z,5.90
2018-11-06T08:52:57.344Z,6.20
2018-11-06T08:58:00.736Z,6.40
2018-11-06T09:03:04.173Z,6.70
2018-11-06T09:08:07.515Z,7.30
2018-11-06T09:13:10.960Z,7.60
2018-11-06T09:18:14.262Z,8.00
2018-11-06T09:23:17.565Z,8.30
2018-11-06T09:28:21.022Z,8.60
2018-11-06T09:33:24.350Z,9.30
2018-11-06T09:38:27.749Z,9.50
2018-11-06T09:43:31.174Z,9.90
2018-11-06T09:48:34.497Z,10.00
2018-11-06T09:53:37.893Z,10.10
2018-11-06T09:58:41.366Z,10.60
2018-11-06T10:03:44.766Z,10.80
2018-11-06T10:08:48.290Z,11.10
2018-11-06T10:13:51.818Z,10.70
2018-11-06T10:18:55.217Z,10.90
2018-11-06T10:23:58.695Z,11.50
2018-11-06T10:29:02.032Z,11.80
2018-11-06T10:34:05.417Z,12.10
2018-11-06T10:39:11.048Z,12.40
2018-11-06T10:44:14.365Z,12.50
2018-11-06T10:49:17.758Z,12.40
2018-11-06T10:54:21.113Z,12.60
2018-11-06T10:59:24.445Z,12.50
2018-11-06T11:04:28.613Z,12.80
2018-11-06T11:09:31.999Z,12.80
2018-11-06T11:14:35.461Z,13.20
2018-11-06T11:19:38.862Z,13.50
2018-11-06T11:24:42.276Z,13.70
2018-11-06T11:29:45.660Z,13.70
2018-11-06T11:34:49.037Z,13.90
2018-11-06T11:39:52.494Z,14.10
2018-11-06T11:44:55.841Z,14.70
2018-11-06T11:49:59.237Z,15.00
2018-11-06T11:55:02.590Z,15.50
2018-11-06T12:00:07.608Z,15.90
2018-11-06T12:05:11.508Z,16.20
2018-11-06T12:15:18.432Z,16.60
2018-11-06T12:20:21.888Z,16.50
2018-11-06T12:25:25.591Z,16.60
2018-11-06T12:30:28.757Z,16.60
2018-11-06T12:35:32.126Z,16.70
2018-11-06T12:40:35.462Z,16.90
2018-11-06T12:45:38.854Z,17.00
2018-11-06T12:50:42.183Z,17.10
2018-11-06T12:55:46.561Z,17.30
2018-11-06T13:00:49.927Z,17.50
2018-11-06T13:05:53.254Z,17.90
2018-11-06T13:10:56.640Z,17.90
2018-11-06T13:16:00.057Z,17.50
2018-11-06T13:21:04.045Z,17.80
2018-11-06T13:26:07.348Z,17.30
2018-11-06T13:31:10.797Z,17.20
2018-11-06T13:36:14.194Z,16.80
2018-11-06T13:41:17.522Z,16.50
2018-11-06T13:46:20.833Z,16.30
2018-11-06T13:51:24.131Z,15.80
2018-11-06T13:56:27.478Z,15.50
2018-11-06T14:01:30.840Z,15.30
2018-11-06T14:06:34.255Z,15.00
2018-11-06T14:11:37.590Z,14.90
2018-11-06T14:16:40.990Z,14.80
2018-11-06T14:21:44.285Z,14.60
2018-11-06T14:26:47.656Z,14.50
2018-11-06T14:31:50.992Z,14.50
2018-11-06T14:36:54.443Z,14.30
2018-11-06T14:41:57.882Z,14.20
2018-11-06T14:47:01.176Z,13.90
2018-11-06T14:52:04.870Z,14.00
2018-11-06T14:57:08.208Z,13.90
2018-11-06T15:02:11.754Z,13.70
2018-11-06T15:07:15.087Z,13.40
2018-11-06T15:12:18.397Z,13.20
2018-11-06T15:17:21.830Z,13.10
2018-11-06T15:22:25.142Z,12.90
2018-11-06T15:27:28.489Z,12.80
2018-11-06T15:32:31.808Z,12.60
2018-11-06T15:37:35.614Z,12.40
2018-11-06T15:42:39.063Z,12.50
2018-11-06T15:47:43.320Z,12.40
2018-11-06T15:52:47.890Z,12.10
2018-11-06T15:57:51.349Z,11.80
2018-11-06T16:02:54.694Z,11.70
2018-11-06T16:07:58.114Z,11.60
2018-11-06T16:13:01.538Z,11.40
2018-11-06T16:18:05.040Z,11.30
2018-11-06T16:23:08.441Z,11.10
2018-11-06T16:28:11.781Z,10.80
2018-11-06T16:33:15.193Z,10.70
2018-11-06T16:38:18.490Z,10.60
2018-11-06T16:43:21.830Z,10.70
2018-11-06T16:48:25.350Z,10.50
2018-11-06T16:53:28.773Z,10.30
2018-11-06T16:58:32.260Z,10.10
2018-11-06T17:03:35.586Z,10.00
2018-11-06T17:08:38.915Z,10.00
2018-11-06T17:13:42.494Z,10.00
2018-11-06T17:18:45.799Z,9.80
2018-11-06T17:23:49.156Z,9.60
2018-11-06T17:28:52.494Z,9.60
2018-11-06T17:33:55.862Z,9.70
2018-11-06T17:38:59.326Z,9.60
2018-11-06T17:44:02.651Z,9.50
2018-11-06T17:49:06.637Z,9.40
2018-11-06T17:54:10.747Z,9.40
2018-11-06T17:59:14.184Z,9.30
2018-11-06T18:04:17.809Z,9.10
2018-11-06T18:09:20.990Z,9.00
2018-11-06T18:14:24.435Z,8.90
2018-11-06T18:19:27.820Z,8.80
2018-11-06T18:24:31.312Z,8.80
2018-11-06T18:29:34.725Z,8.70
2018-11-06T18:34:39.066Z,8.60
2018-11-06T18:39:42.372Z,8.50
2018-11-06T18:44:45.672Z,8.40
2018-11-06T18:49:49.172Z,8.30
2018-11-06T18:54:52.492Z,8.20
2018-11-06T18:59:55.787Z,8.10
2018-11-06T19:04:59.184Z,8.10
2018-11-06T19:10:02.484Z,8.00
2018-11-06T19:15:09.433Z,7.90
2018-11-06T19:20:13.319Z,7.70
2018-11-06T19:25:16.807Z,7.80
2018-11-06T19:30:20.565Z,7.70
2018-11-06T19:35:23.944Z,7.70
2018-11-06T19:40:27.514Z,7.50
2018-11-06T19:45:30.893Z,7.40
2018-11-06T19:50:34.306Z,7.30
2018-11-06T19:55:37.712Z,7.30
2018-11-06T20:00:41.222Z,7.20
2018-11-06T20:05:44.738Z,7.10
2018-11-06T20:10:48.041Z,7.10
2018-11-06T20:15:51.682Z,7.00
2018-11-06T20:20:55.004Z,7.00
2018-11-06T20:25:58.374Z,6.90
2018-11-06T20:31:02.238Z,6.70
2018-11-06T20:36:05.945Z,6.70
2018-11-06T20:41:09.359Z,6.80
2018-11-06T20:46:14.059Z,6.70
2018-11-06T20:51:17.417Z,6.70
2018-11-06T20:56:21.086Z,6.50
2018-11-06T21:06:27.826Z,6.50
2018-11-06T21:11:31.227Z,6.40
2018-11-06T21:16:34.783Z,6.30
2018-11-06T21:21:38.281Z,6.30
2018-11-06T21:26:41.834Z,6.10
2018-11-06T21:31:45.280Z,6.20
2018-11-06T21:36:48.729Z,6.10
2018-11-06T21:41:52.155Z,6.10
2018-11-06T21:46:55.790Z,6.00
2018-11-06T21:51:59.132Z,5.90
2018-11-06T21:57:02.510Z,5.90
2018-11-06T22:02:06.062Z,6.10
2018-11-06T22:07:09.353Z,6.30
2018-11-06T22:12:12.926Z,6.50
2018-11-06T22:17:16.138Z,6.60
2018-11-06T22:22:19.576Z,6.70
2018-11-06T22:27:23.141Z,6.60
2018-11-06T22:32:27.462Z,6.50
2018-11-06T22:37:31.103Z,6.60
2018-11-06T22:42:34.537Z,6.50
2018-11-06T22:47:37.846Z,6.50
2018-11-06T22:52:41.316Z,6.50
2018-11-06T22:57:44.847Z,6.40
2018-11-06T23:02:48.158Z,6.10
2018-11-06T23:07:56.846Z,5.90
2018-11-06T23:13:00.170Z,5.90
2018-11-06T23:18:03.470Z,5.70
2018-11-06T23:28:09.881Z,5.50
2018-11-06T23:33:13.200Z,5.50
2018-11-06T23:38:16.465Z,5.50
2018-11-06T23:43:19.882Z,5.20
2018-11-06T23:48:23.167Z,5.10
2018-11-06T23:53:26.613Z,5.00
2018-11-06T23:58:30.030Z,5.00
